sensor_id;sensor_type;location;lat;lon;timestamp;pressure;altitude;pressure_sealevel;temperature
17716;BMP280;50159;49.426;11.182;2023-03-01T00:01:38;98513.94;;;-0.59
17716;BMP280;50159;49.426;11.182;2023-03-01T00:04:05;98517.34;;;-0.60
17716;BMP280;50159;49.426;11.182;2023-03-01T00:06:32;98513.94;;;-0.59
17716;BMP280;50159;49.426;11.182;2023-03-01T00:08:59;98519.84;;;-0.57
17716;BMP280;50159;49.426;11.182;2023-03-01T00:11:29;98518.97;;;-0.56
17716;BMP280;50159;49.426;11.182;2023-03-01T00:14:01;98513.84;;;-0.56
17716;BMP280;50159;49.426;11.182;2023-03-01T00:16:42;98521.47;;;-0.54
17716;BMP280;50159;49.426;11.182;2023-03-01T00:19:13;98512.97;;;-0.55
17716;BMP280;50159;49.426;11.182;2023-03-01T00:21:41;98519.81;;;-0.55
17716;BMP280;50159;49.426;11.182;2023-03-01T00:24:09;98525.75;;;-0.55
17716;BMP280;50159;49.426;11.182;2023-03-01T00:26:37;98518.09;;;-0.55
17716;BMP280;50159;49.426;11.182;2023-03-01T00:29:04;98520.63;;;-0.55
17716;BMP280;50159;49.426;11.182;2023-03-01T00:31:33;98514.69;;;-0.55
17716;BMP280;50159;49.426;11.182;2023-03-01T00:34:04;98517.28;;;-0.57
17716;BMP280;50159;49.426;11.182;2023-03-01T00:36:35;98523.22;;;-0.56
17716;BMP280;50159;49.426;11.182;2023-03-01T00:39:07;98515.59;;;-0.58
17716;BMP280;50159;49.426;11.182;2023-03-01T00:41:34;98519.06;;;-0.60
17716;BMP280;50159;49.426;11.182;2023-03-01T00:44:02;98515.69;;;-0.61
17716;BMP280;50159;49.426;11.182;2023-03-01T00:46:29;98520.00;;;-0.64
17716;BMP280;50159;49.426;11.182;2023-03-01T00:48:57;98511.50;;;-0.65
17716;BMP280;50159;49.426;11.182;2023-03-01T00:51:27;98510.69;;;-0.67
17716;BMP280;50159;49.426;11.182;2023-03-01T00:53:58;98507.25;;;-0.66
17716;BMP280;50159;49.426;11.182;2023-03-01T00:56:25;98505.59;;;-0.67
17716;BMP280;50159;49.426;11.182;2023-03-01T00:58:52;98498.78;;;-0.68
17716;BMP280;50159;49.426;11.182;2023-03-01T01:01:24;98495.34;;;-0.67
17716;BMP280;50159;49.426;11.182;2023-03-01T01:03:58;98489.41;;;-0.67
17716;BMP280;50159;49.426;11.182;2023-03-01T01:06:32;98491.09;;;-0.66
17716;BMP280;50159;49.426;11.182;2023-03-01T01:09:00;98482.63;;;-0.68
17716;BMP280;50159;49.426;11.182;2023-03-01T01:11:29;98487.75;;;-0.68
17716;BMP280;50159;49.426;11.182;2023-03-01T01:13:57;98481.78;;;-0.68
17716;BMP280;50159;49.426;11.182;2023-03-01T01:16:27;98485.25;;;-0.71
17716;BMP280;50159;49.426;11.182;2023-03-01T01:18:56;98479.31;;;-0.71
17716;BMP280;50159;49.426;11.182;2023-03-01T01:21:25;98486.13;;;-0.72
17716;BMP280;50159;49.426;11.182;2023-03-01T01:23:52;98481.03;;;-0.72
17716;BMP280;50159;49.426;11.182;2023-03-01T01:26:24;98474.25;;;-0.73
17716;BMP280;50159;49.426;11.182;2023-03-01T01:28:52;98468.34;;;-0.75
17716;BMP280;50159;49.426;11.182;2023-03-01T01:31:20;98463.22;;;-0.76
17716;BMP280;50159;49.426;11.182;2023-03-01T01:33:51;98464.91;;;-0.75
17716;BMP280;50159;49.426;11.182;2023-03-01T01:36:19;98466.63;;;-0.74
17716;BMP280;50159;49.426;11.182;2023-03-01T01:38:46;98461.50;;;-0.74
17716;BMP280;50159;49.426;11.182;2023-03-01T01:41:13;98461.56;;;-0.77
17716;BMP280;50159;49.426;11.182;2023-03-01T01:44:15;98459.88;;;-0.78
17716;BMP280;50159;49.426;11.182;2023-03-01T01:47:04;98451.34;;;-0.77
17716;BMP280;50159;49.426;11.182;2023-03-01T01:49:51;98452.22;;;-0.78
17716;BMP280;50159;49.426;11.182;2023-03-01T01:52:27;98448.06;;;-0.82
17716;BMP280;50159;49.426;11.182;2023-03-01T01:55:04;98441.28;;;-0.83
17716;BMP280;50159;49.426;11.182;2023-03-01T01:57:39;98440.41;;;-0.82
17716;BMP280;50159;49.426;11.182;2023-03-01T02:00:15;98435.31;;;-0.84
17716;BMP280;50159;49.426;11.182;2023-03-01T02:02:45;98431.13;;;-0.86
17716;BMP280;50159;49.426;11.182;2023-03-01T02:05:24;98430.28;;;-0.87
17716;BMP280;50159;49.426;11.182;2023-03-01T02:07:53;98424.34;;;-0.87
17716;BMP280;50159;49.426;11.182;2023-03-01T02:10:23;98426.06;;;-0.89
17716;BMP280;50159;49.426;11.182;2023-03-01T02:12:51;98420.97;;;-0.89
17716;BMP280;50159;49.426;11.182;2023-03-01T02:15:18;98415.88;;;-0.89
17716;BMP280;50159;49.426;11.182;2023-03-01T02:17:45;98420.97;;;-0.89
17716;BMP280;50159;49.426;11.182;2023-03-01T02:23:00;98408.13;;;-0.85
17716;BMP280;50159;49.426;11.182;2023-03-01T02:25:52;98406.41;;;-0.84
17716;BMP280;50159;49.426;11.182;2023-03-01T02:28:33;98409.75;;;-0.82
17716;BMP280;50159;49.426;11.182;2023-03-01T02:31:03;98406.31;;;-0.81
17716;BMP280;50159;49.426;11.182;2023-03-01T02:33:51;98403.81;;;-0.83
17716;BMP280;50159;49.426;11.182;2023-03-01T02:36:26;98407.16;;;-0.81
17716;BMP280;50159;49.426;11.182;2023-03-01T02:38:59;98403.78;;;-0.81
17716;BMP280;50159;49.426;11.182;2023-03-01T02:41:35;98398.66;;;-0.81
17716;BMP280;50159;49.426;11.182;2023-03-01T02:44:04;98403.81;;;-0.83
17716;BMP280;50159;49.426;11.182;2023-03-01T02:46:32;98400.41;;;-0.83
17716;BMP280;50159;49.426;11.182;2023-03-01T02:48:59;98388.53;;;-0.84
17716;BMP280;50159;49.426;11.182;2023-03-01T02:54:32;98387.78;;;-0.89
17716;BMP280;50159;49.426;11.182;2023-03-01T02:57:01;98381.00;;;-0.90
17716;BMP280;50159;49.426;11.182;2023-03-01T02:59:33;98374.25;;;-0.92
17716;BMP280;50159;49.426;11.182;2023-03-01T03:02:17;98370.91;;;-0.94
17716;BMP280;50159;49.426;11.182;2023-03-01T03:04:47;98382.03;;;-0.97
17716;BMP280;50159;49.426;11.182;2023-03-01T03:07:13;98377.78;;;-0.98
17716;BMP280;50159;49.426;11.182;2023-03-01T03:09:40;98374.41;;;-0.98
17716;BMP280;50159;49.426;11.182;2023-03-01T03:12:07;98378.69;;;-1.00
17716;BMP280;50159;49.426;11.182;2023-03-01T03:14:34;98366.84;;;-1.03
17716;BMP280;50159;49.426;11.182;2023-03-01T03:17:01;98363.56;;;-1.08
17716;BMP280;50159;49.426;11.182;2023-03-01T03:19:32;98372.94;;;-1.08
17716;BMP280;50159;49.426;11.182;2023-03-01T03:21:59;98361.16;;;-1.15
17716;BMP280;50159;49.426;11.182;2023-03-01T03:24:26;98358.75;;;-1.21
17716;BMP280;50159;49.426;11.182;2023-03-01T03:26:55;98360.63;;;-1.29
17716;BMP280;50159;49.426;11.182;2023-03-01T03:29:21;98363.31;;;-1.34
17716;BMP280;50159;49.426;11.182;2023-03-01T03:31:48;98361.72;;;-1.40
17716;BMP280;50159;49.426;11.182;2023-03-01T03:34:15;98360.94;;;-1.42
17716;BMP280;50159;49.426;11.182;2023-03-01T03:36:44;98362.66;;;-1.44
17716;BMP280;50159;49.426;11.182;2023-03-01T03:39:11;98365.25;;;-1.45
17716;BMP280;50159;49.426;11.182;2023-03-01T03:41:38;98364.41;;;-1.46
17716;BMP280;50159;49.426;11.182;2023-03-01T03:44:04;98369.53;;;-1.46
17716;BMP280;50159;49.426;11.182;2023-03-01T03:46:31;98361.91;;;-1.47
17716;BMP280;50159;49.426;11.182;2023-03-01T03:48:59;98360.22;;;-1.48
17716;BMP280;50159;49.426;11.182;2023-03-01T03:51:26;98353.38;;;-1.46
17716;BMP280;50159;49.426;11.182;2023-03-01T03:53:52;98355.97;;;-1.48
17716;BMP280;50159;49.426;11.182;2023-03-01T03:56:19;98361.09;;;-1.49
17716;BMP280;50159;49.426;11.182;2023-03-01T03:58:46;98360.28;;;-1.51
17716;BMP280;50159;49.426;11.182;2023-03-01T04:01:13;98358.56;;;-1.51
17716;BMP280;50159;49.426;11.182;2023-03-01T04:03:39;98354.31;;;-1.50
17716;BMP280;50159;49.426;11.182;2023-03-01T04:06:08;98356.00;;;-1.51
17716;BMP280;50159;49.426;11.182;2023-03-01T04:08:35;98353.47;;;-1.51
17716;BMP280;50159;49.426;11.182;2023-03-01T04:11:04;98358.59;;;-1.52
17716;BMP280;50159;49.426;11.182;2023-03-01T04:13:54;98364.53;;;-1.52
17716;BMP280;50159;49.426;11.182;2023-03-01T04:16:21;98368.75;;;-1.51
17716;BMP280;50159;49.426;11.182;2023-03-01T04:18:49;98371.38;;;-1.54
17716;BMP280;50159;49.426;11.182;2023-03-01T04:21:16;98362.94;;;-1.56
17716;BMP280;50159;49.426;11.182;2023-03-01T04:23:43;98368.94;;;-1.58
17716;BMP280;50159;49.426;11.182;2023-03-01T04:26:09;98364.75;;;-1.60
17716;BMP280;50159;49.426;11.182;2023-03-01T04:28:40;98358.84;;;-1.62
17716;BMP280;50159;49.426;11.182;2023-03-01T04:31:16;98363.09;;;-1.64
17716;BMP280;50159;49.426;11.182;2023-03-01T04:33:55;98367.47;;;-1.69
17716;BMP280;50159;49.426;11.182;2023-03-01T04:36:27;98362.44;;;-1.72
17716;BMP280;50159;49.426;11.182;2023-03-01T04:38:56;98365.06;;;-1.75
17716;BMP280;50159;49.426;11.182;2023-03-01T04:41:24;98378.69;;;-1.78
17716;BMP280;50159;49.426;11.182;2023-03-01T04:43:52;98368.47;;;-1.78
17716;BMP280;50159;49.426;11.182;2023-03-01T04:46:20;98365.09;;;-1.78
17716;BMP280;50159;49.426;11.182;2023-03-01T04:48:47;98370.19;;;-1.78
17716;BMP280;50159;49.426;11.182;2023-03-01T04:51:15;98365.09;;;-1.78
17716;BMP280;50159;49.426;11.182;2023-03-01T04:53:43;98361.66;;;-1.77
17716;BMP280;50159;49.426;11.182;2023-03-01T04:56:10;98359.94;;;-1.74
17716;BMP280;50159;49.426;11.182;2023-03-01T04:58:37;98366.69;;;-1.73
17716;BMP280;50159;49.426;11.182;2023-03-01T05:01:17;98366.72;;;-1.74
17716;BMP280;50159;49.426;11.182;2023-03-01T05:03:48;98369.25;;;-1.73
17716;BMP280;50159;49.426;11.182;2023-03-01T05:06:17;98362.47;;;-1.74
17716;BMP280;50159;49.426;11.182;2023-03-01T05:08:44;98361.63;;;-1.74
17716;BMP280;50159;49.426;11.182;2023-03-01T05:11:12;98358.25;;;-1.75
17716;BMP280;50159;49.426;11.182;2023-03-01T05:13:39;98357.41;;;-1.75
17716;BMP280;50159;49.426;11.182;2023-03-01T05:16:08;98356.53;;;-1.74
17716;BMP280;50159;49.426;11.182;2023-03-01T05:18:39;98360.81;;;-1.75
17716;BMP280;50159;49.426;11.182;2023-03-01T05:21:10;98349.75;;;-1.75
17716;BMP280;50159;49.426;11.182;2023-03-01T05:23:38;98343.78;;;-1.74
17716;BMP280;50159;49.426;11.182;2023-03-01T05:26:06;98343.81;;;-1.77
17716;BMP280;50159;49.426;11.182;2023-03-01T05:28:48;98346.44;;;-1.80
17716;BMP280;50159;49.426;11.182;2023-03-01T05:31:14;98343.94;;;-1.81
17716;BMP280;50159;49.426;11.182;2023-03-01T05:33:42;98342.28;;;-1.84
17716;BMP280;50159;49.426;11.182;2023-03-01T05:36:10;98353.44;;;-1.88
17716;BMP280;50159;49.426;11.182;2023-03-01T05:38:37;98348.38;;;-1.91
17716;BMP280;50159;49.426;11.182;2023-03-01T05:41:04;98351.81;;;-1.93
17716;BMP280;50159;49.426;11.182;2023-03-01T05:43:31;98345.00;;;-1.93
17716;BMP280;50159;49.426;11.182;2023-03-01T05:46:01;98351.84;;;-1.95
17716;BMP280;50159;49.426;11.182;2023-03-01T05:48:28;98345.91;;;-1.95
17716;BMP280;50159;49.426;11.182;2023-03-01T05:50:54;98353.63;;;-1.98
17716;BMP280;50159;49.426;11.182;2023-03-01T05:53:21;98350.28;;;-2.00
17716;BMP280;50159;49.426;11.182;2023-03-01T05:55:48;98340.06;;;-2.00
17716;BMP280;50159;49.426;11.182;2023-03-01T05:58:19;98344.28;;;-1.98
17716;BMP280;50159;49.426;11.182;2023-03-01T06:00:48;98338.31;;;-1.97
17716;BMP280;50159;49.426;11.182;2023-03-01T06:03:17;98333.22;;;-1.97
17716;BMP280;50159;49.426;11.182;2023-03-01T06:05:44;98338.31;;;-1.97
17716;BMP280;50159;49.426;11.182;2023-03-01T06:08:12;98329.81;;;-1.97
17716;BMP280;50159;49.426;11.182;2023-03-01T06:10:39;98329.78;;;-1.96
17716;BMP280;50159;49.426;11.182;2023-03-01T06:13:07;98332.28;;;-1.94
17716;BMP280;50159;49.426;11.182;2023-03-01T06:15:34;98339.88;;;-1.91
17716;BMP280;50159;49.426;11.182;2023-03-01T06:18:00;98329.66;;;-1.90
17716;BMP280;50159;49.426;11.182;2023-03-01T06:20:29;98335.47;;;-1.83
17716;BMP280;50159;49.426;11.182;2023-03-01T06:22:56;98331.16;;;-1.80
17716;BMP280;50159;49.426;11.182;2023-03-01T06:25:25;98340.44;;;-1.78
17716;BMP280;50159;49.426;11.182;2023-03-01T06:27:52;98330.97;;;-1.71
17716;BMP280;50159;49.426;11.182;2023-03-01T06:30:23;98330.84;;;-1.65
17716;BMP280;50159;49.426;11.182;2023-03-01T06:32:51;98329.78;;;-1.56
17716;BMP280;50159;49.426;11.182;2023-03-01T06:35:19;98329.66;;;-1.50
17716;BMP280;50159;49.426;11.182;2023-03-01T06:37:48;98332.00;;;-1.41
17716;BMP280;50159;49.426;11.182;2023-03-01T06:40:16;98324.19;;;-1.34
17716;BMP280;50159;49.426;11.182;2023-03-01T06:42:48;98332.47;;;-1.24
17716;BMP280;50159;49.426;11.182;2023-03-01T06:45:19;98328.84;;;-1.16
17716;BMP280;50159;49.426;11.182;2023-03-01T06:47:47;98327.91;;;-1.11
17716;BMP280;50159;49.426;11.182;2023-03-01T06:50:16;98325.16;;;-1.03
17716;BMP280;50159;49.426;11.182;2023-03-01T06:52:43;98335.94;;;-0.92
17716;BMP280;50159;49.426;11.182;2023-03-01T06:55:13;98325.50;;;-0.82
17716;BMP280;50159;49.426;11.182;2023-03-01T06:57:39;98328.63;;;-0.71
17716;BMP280;50159;49.426;11.182;2023-03-01T07:00:07;98330.00;;;-0.59
17716;BMP280;50159;49.426;11.182;2023-03-01T07:02:34;98342.47;;;-0.47
17716;BMP280;50159;49.426;11.182;2023-03-01T07:05:01;98337.91;;;-0.35
17716;BMP280;50159;49.426;11.182;2023-03-01T07:07:28;98331.59;;;-0.22
17716;BMP280;50159;49.426;11.182;2023-03-01T07:09:55;98328.66;;;-0.09
17716;BMP280;50159;49.426;11.182;2023-03-01T07:12:22;98330.00;;;0.04
17716;BMP280;50159;49.426;11.182;2023-03-01T07:14:49;98324.53;;;0.17
17716;BMP280;50159;49.426;11.182;2023-03-01T07:17:17;98316.50;;;0.29
17716;BMP280;50159;49.426;11.182;2023-03-01T07:19:43;98314.34;;;0.44
17716;BMP280;50159;49.426;11.182;2023-03-01T07:22:11;98307.94;;;0.58
17716;BMP280;50159;49.426;11.182;2023-03-01T07:24:38;98309.19;;;0.72
17716;BMP280;50159;49.426;11.182;2023-03-01T07:27:05;98301.91;;;0.86
17716;BMP280;50159;49.426;11.182;2023-03-01T07:29:31;98309.09;;;1.02
17716;BMP280;50159;49.426;11.182;2023-03-01T07:31:58;98297.59;;;1.15
17716;BMP280;50159;49.426;11.182;2023-03-01T07:34:25;98301.38;;;1.29
17716;BMP280;50159;49.426;11.182;2023-03-01T07:36:52;98286.28;;;1.46
17716;BMP280;50159;49.426;11.182;2023-03-01T07:39:19;98293.38;;;1.62
17716;BMP280;50159;49.426;11.182;2023-03-01T07:41:46;98303.03;;;1.79
17716;BMP280;50159;49.426;11.182;2023-03-01T07:44:12;98288.06;;;1.92
17716;BMP280;50159;49.426;11.182;2023-03-01T07:46:39;98291.75;;;2.07
17716;BMP280;50159;49.426;11.182;2023-03-01T07:49:06;98281.13;;;2.18
17716;BMP280;50159;49.426;11.182;2023-03-01T07:51:33;98288.19;;;2.34
17716;BMP280;50159;49.426;11.182;2023-03-01T07:54:00;98283.31;;;2.49
17716;BMP280;50159;49.426;11.182;2023-03-01T07:56:27;98287.66;;;2.69
17716;BMP280;50159;49.426;11.182;2023-03-01T07:58:53;98280.88;;;2.90
17716;BMP280;50159;49.426;11.182;2023-03-01T08:01:21;98291.38;;;3.26
17716;BMP280;50159;49.426;11.182;2023-03-01T08:03:48;98295.72;;;3.64
17716;BMP280;50159;49.426;11.182;2023-03-01T08:06:17;98295.28;;;3.94
17716;BMP280;50159;49.426;11.182;2023-03-01T08:08:44;98293.25;;;4.20
17716;BMP280;50159;49.426;11.182;2023-03-01T08:11:14;98289.22;;;4.33
17716;BMP280;50159;49.426;11.182;2023-03-01T08:13:42;98280.75;;;4.31
17716;BMP280;50159;49.426;11.182;2023-03-01T08:16:15;98280.16;;;4.24
17716;BMP280;50159;49.426;11.182;2023-03-01T08:18:43;98286.34;;;4.21
17716;BMP280;50159;49.426;11.182;2023-03-01T08:21:14;98286.78;;;4.30
17716;BMP280;50159;49.426;11.182;2023-03-01T08:23:42;98281.44;;;4.34
17716;BMP280;50159;49.426;11.182;2023-03-01T08:26:16;98268.91;;;4.27
17716;BMP280;50159;49.426;11.182;2023-03-01T08:28:45;98261.66;;;4.35
17716;BMP280;50159;49.426;11.182;2023-03-01T08:31:42;98267.03;;;4.48
17716;BMP280;50159;49.426;11.182;2023-03-01T08:34:16;98260.50;;;4.60
17716;BMP280;50159;49.426;11.182;2023-03-01T08:36:46;98257.34;;;4.71
17716;BMP280;50159;49.426;11.182;2023-03-01T08:39:16;98259.13;;;4.88
17716;BMP280;50159;49.426;11.182;2023-03-01T08:41:43;98249.88;;;5.02
17716;BMP280;50159;49.426;11.182;2023-03-01T08:44:15;98243.56;;;5.07
17716;BMP280;50159;49.426;11.182;2023-03-01T08:46:44;98244.56;;;5.21
17716;BMP280;50159;49.426;11.182;2023-03-01T08:49:17;98247.47;;;5.32
17716;BMP280;50159;49.426;11.182;2023-03-01T08:51:45;98246.72;;;5.47
17716;BMP280;50159;49.426;11.182;2023-03-01T08:54:16;98244.28;;;5.60
17716;BMP280;50159;49.426;11.182;2023-03-01T08:56:44;98242.25;;;5.67
17716;BMP280;50159;49.426;11.182;2023-03-01T08:59:14;98244.59;;;5.88
17716;BMP280;50159;49.426;11.182;2023-03-01T09:01:41;98243.13;;;5.99
17716;BMP280;50159;49.426;11.182;2023-03-01T09:04:15;98242.59;;;6.09
17716;BMP280;50159;49.426;11.182;2023-03-01T09:06:42;98236.22;;;6.16
17716;BMP280;50159;49.426;11.182;2023-03-01T09:09:17;98226.25;;;6.41
17716;BMP280;50159;49.426;11.182;2023-03-01T09:11:45;98231.44;;;6.56
17716;BMP280;50159;49.426;11.182;2023-03-01T09:14:14;98226.59;;;6.65
17716;BMP280;50159;49.426;11.182;2023-03-01T09:16:43;98226.44;;;6.68
17716;BMP280;50159;49.426;11.182;2023-03-01T09:19:10;98229.94;;;6.67
17716;BMP280;50159;49.426;11.182;2023-03-01T09:21:37;98231.19;;;6.60
17716;BMP280;50159;49.426;11.182;2023-03-01T09:24:14;98224.59;;;6.70
17716;BMP280;50159;49.426;11.182;2023-03-01T09:26:42;98222.44;;;6.93
17716;BMP280;50159;49.426;11.182;2023-03-01T09:29:09;98205.56;;;7.01
17716;BMP280;50159;49.426;11.182;2023-03-01T09:31:36;98211.63;;;7.15
17716;BMP280;50159;49.426;11.182;2023-03-01T09:34:03;98205.50;;;7.32
17716;BMP280;50159;49.426;11.182;2023-03-01T09:36:31;98206.19;;;7.49
17716;BMP280;50159;49.426;11.182;2023-03-01T09:38:59;98209.56;;;7.64
17716;BMP280;50159;49.426;11.182;2023-03-01T09:41:45;98203.00;;;7.73
17716;BMP280;50159;49.426;11.182;2023-03-01T09:44:36;98197.41;;;7.94
17716;BMP280;50159;49.426;11.182;2023-03-01T09:47:09;98200.91;;;7.93
17716;BMP280;50159;49.426;11.182;2023-03-01T09:49:43;98202.03;;;7.89
17716;BMP280;50159;49.426;11.182;2023-03-01T09:52:46;98189.91;;;7.89
17716;BMP280;50159;49.426;11.182;2023-03-01T09:55:26;98197.34;;;8.09
17716;BMP280;50159;49.426;11.182;2023-03-01T09:58:00;98192.16;;;8.23
17716;BMP280;50159;49.426;11.182;2023-03-01T10:00:49;98186.78;;;8.26
17716;BMP280;50159;49.426;11.182;2023-03-01T10:03:58;98191.41;;;8.48
17716;BMP280;50159;49.426;11.182;2023-03-01T10:06:26;98184.31;;;8.64
17716;BMP280;50159;49.426;11.182;2023-03-01T10:09:11;98187.56;;;8.67
17716;BMP280;50159;49.426;11.182;2023-03-01T10:11:46;98189.69;;;8.74
17716;BMP280;50159;49.426;11.182;2023-03-01T10:14:28;98182.50;;;8.92
17716;BMP280;50159;49.426;11.182;2023-03-01T10:17:03;98183.81;;;9.11
17716;BMP280;50159;49.426;11.182;2023-03-01T10:22:13;98177.03;;;9.34
17716;BMP280;50159;49.426;11.182;2023-03-01T10:24:41;98176.03;;;9.49
17716;BMP280;50159;49.426;11.182;2023-03-01T10:27:36;98175.94;;;9.62
17716;BMP280;50159;49.426;11.182;2023-03-01T10:32:58;98181.22;;;9.49
17716;BMP280;50159;49.426;11.182;2023-03-01T10:35:29;98172.94;;;9.68
17716;BMP280;50159;49.426;11.182;2023-03-01T10:38:04;98171.69;;;9.74
17716;BMP280;50159;49.426;11.182;2023-03-01T10:40:39;98175.56;;;9.68
17716;BMP280;50159;49.426;11.182;2023-03-01T10:43:15;98154.72;;;9.82
17716;BMP280;50159;49.426;11.182;2023-03-01T10:45:42;98155.44;;;9.96
17716;BMP280;50159;49.426;11.182;2023-03-01T10:48:22;98144.09;;;9.97
17716;BMP280;50159;49.426;11.182;2023-03-01T10:51:17;98141.28;;;10.12
17716;BMP280;50159;49.426;11.182;2023-03-01T10:53:49;98131.38;;;10.29
17716;BMP280;50159;49.426;11.182;2023-03-01T10:56:18;98118.78;;;10.36
17716;BMP280;50159;49.426;11.182;2023-03-01T10:59:05;98119.59;;;10.36
17716;BMP280;50159;49.426;11.182;2023-03-01T11:01:36;98110.09;;;10.48
17716;BMP280;50159;49.426;11.182;2023-03-01T11:06:34;98089.22;;;10.95
17716;BMP280;50159;49.426;11.182;2023-03-01T11:09:21;98089.53;;;11.24
17716;BMP280;50159;49.426;11.182;2023-03-01T11:11:55;98093.31;;;11.20
17716;BMP280;50159;49.426;11.182;2023-03-01T11:14:26;98078.53;;;11.21
17716;BMP280;50159;49.426;11.182;2023-03-01T11:17:27;98067.22;;;11.33
17716;BMP280;50159;49.426;11.182;2023-03-01T11:23:01;98070.00;;;11.63
17716;BMP280;50159;49.426;11.182;2023-03-01T11:25:36;98064.69;;;11.86
17716;BMP280;50159;49.426;11.182;2023-03-01T11:28:07;98073.69;;;11.72
17716;BMP280;50159;49.426;11.182;2023-03-01T11:31:07;98059.41;;;11.77
17716;BMP280;50159;49.426;11.182;2023-03-01T11:33:54;98050.84;;;11.97
17716;BMP280;50159;49.426;11.182;2023-03-01T11:36:48;98054.28;;;11.97
17716;BMP280;50159;49.426;11.182;2023-03-01T11:39:41;98049.53;;;12.13
17716;BMP280;50159;49.426;11.182;2023-03-01T11:42:19;98044.31;;;12.24
17716;BMP280;50159;49.426;11.182;2023-03-01T11:44:52;98034.56;;;12.26
17716;BMP280;50159;49.426;11.182;2023-03-01T11:50:35;98037.16;;;12.36
17716;BMP280;50159;49.426;11.182;2023-03-01T11:56:32;98030.44;;;12.23
17716;BMP280;50159;49.426;11.182;2023-03-01T11:59:20;98032.47;;;12.20
17716;BMP280;50159;49.426;11.182;2023-03-01T12:10:43;98008.63;;;12.24
17716;BMP280;50159;49.426;11.182;2023-03-01T12:19:34;97997.56;;;12.42
17716;BMP280;50159;49.426;11.182;2023-03-01T12:30:46;97979.44;;;12.41
17716;BMP280;50159;49.426;11.182;2023-03-01T12:33:55;97978.78;;;12.48
17716;BMP280;50159;49.426;11.182;2023-03-01T12:37:03;97956.22;;;12.58
17716;BMP280;50159;49.426;11.182;2023-03-01T12:46:10;97948.34;;;12.79
17716;BMP280;50159;49.426;11.182;2023-03-01T12:49:10;97945.84;;;12.98
17716;BMP280;50159;49.426;11.182;2023-03-01T12:51:44;97935.63;;;13.35
17716;BMP280;50159;49.426;11.182;2023-03-01T12:56:57;97927.91;;;13.34
17716;BMP280;50159;49.426;11.182;2023-03-01T12:59:41;97934.13;;;13.13
17716;BMP280;50159;49.426;11.182;2023-03-01T13:02:25;97929.84;;;13.12
17716;BMP280;50159;49.426;11.182;2023-03-01T13:07:54;97935.84;;;13.23
17716;BMP280;50159;49.426;11.182;2023-03-01T13:10:51;97934.19;;;13.22
17716;BMP280;50159;49.426;11.182;2023-03-01T13:13:24;97927.91;;;13.34
17716;BMP280;50159;49.426;11.182;2023-03-01T13:15:52;97922.41;;;13.27
17716;BMP280;50159;49.426;11.182;2023-03-01T13:20:52;97928.91;;;13.13
17716;BMP280;50159;49.426;11.182;2023-03-01T13:26:12;97918.84;;;13.28
17716;BMP280;50159;49.426;11.182;2023-03-01T13:34:02;97916.88;;;13.60
17716;BMP280;50159;49.426;11.182;2023-03-01T13:39:27;97908.91;;;13.61
17716;BMP280;50159;49.426;11.182;2023-03-01T13:41:55;97899.19;;;13.72
17716;BMP280;50159;49.426;11.182;2023-03-01T13:52:45;97902.31;;;13.96
17716;BMP280;50159;49.426;11.182;2023-03-01T13:55:22;97893.16;;;13.81
17716;BMP280;50159;49.426;11.182;2023-03-01T13:58:01;97897.53;;;13.71
17716;BMP280;50159;49.426;11.182;2023-03-01T14:00:39;97896.13;;;13.97
17716;BMP280;50159;49.426;11.182;2023-03-01T14:03:13;97894.88;;;14.01
17716;BMP280;50159;49.426;11.182;2023-03-01T14:05:59;97894.13;;;14.28
17716;BMP280;50159;49.426;11.182;2023-03-01T14:08:40;97890.25;;;14.78
17716;BMP280;50159;49.426;11.182;2023-03-01T14:17:44;97886.91;;;20.07
17716;BMP280;50159;49.426;11.182;2023-03-01T14:20:24;97887.44;;;21.42
17716;BMP280;50159;49.426;11.182;2023-03-01T14:22:55;97886.97;;;23.41
17716;BMP280;50159;49.426;11.182;2023-03-01T14:25:35;97889.81;;;25.23
17716;BMP280;50159;49.426;11.182;2023-03-01T14:28:24;97897.78;;;26.62
17716;BMP280;50159;49.426;11.182;2023-03-01T14:30:58;97889.59;;;26.51
17716;BMP280;50159;49.426;11.182;2023-03-01T14:33:35;97878.06;;;26.99
17716;BMP280;50159;49.426;11.182;2023-03-01T14:36:13;97876.63;;;27.75
17716;BMP280;50159;49.426;11.182;2023-03-01T14:38:46;97881.06;;;27.09
17716;BMP280;50159;49.426;11.182;2023-03-01T14:41:25;97884.34;;;27.11
17716;BMP280;50159;49.426;11.182;2023-03-01T14:44:14;97887.84;;;26.75
17716;BMP280;50159;49.426;11.182;2023-03-01T14:46:44;97883.97;;;27.08
17716;BMP280;50159;49.426;11.182;2023-03-01T14:49:20;97884.91;;;26.89
17716;BMP280;50159;49.426;11.182;2023-03-01T14:52:01;97879.72;;;26.02
17716;BMP280;50159;49.426;11.182;2023-03-01T14:54:42;97869.56;;;26.35
17716;BMP280;50159;49.426;11.182;2023-03-01T14:57:20;97872.06;;;27.04
17716;BMP280;50159;49.426;11.182;2023-03-01T14:59:54;97878.66;;;27.56
17716;BMP280;50159;49.426;11.182;2023-03-01T15:02:25;97870.81;;;27.61
17716;BMP280;50159;49.426;11.182;2023-03-01T15:04:57;97863.72;;;27.24
17716;BMP280;50159;49.426;11.182;2023-03-01T15:07:33;97865.59;;;25.88
17716;BMP280;50159;49.426;11.182;2023-03-01T15:10:03;97874.84;;;24.91
17716;BMP280;50159;49.426;11.182;2023-03-01T15:14:58;97869.44;;;23.19
17716;BMP280;50159;49.426;11.182;2023-03-01T15:17:36;97871.78;;;22.53
17716;BMP280;50159;49.426;11.182;2023-03-01T15:20:13;97861.25;;;22.04
17716;BMP280;50159;49.426;11.182;2023-03-01T15:22:44;97879.63;;;20.68
17716;BMP280;50159;49.426;11.182;2023-03-01T15:25:18;97867.50;;;18.61
17716;BMP280;50159;49.426;11.182;2023-03-01T15:27:48;97867.50;;;18.61
17716;BMP280;50159;49.426;11.182;2023-03-01T15:30:22;97869.56;;;15.03
17716;BMP280;50159;49.426;11.182;2023-03-01T15:33:17;97886.13;;;13.72
17716;BMP280;50159;49.426;11.182;2023-03-01T15:35:51;97879.63;;;12.99
17716;BMP280;50159;49.426;11.182;2023-03-01T15:41:28;97884.66;;;12.20
17716;BMP280;50159;49.426;11.182;2023-03-01T15:44:15;97884.06;;;12.48
17716;BMP280;50159;49.426;11.182;2023-03-01T15:46:46;97881.13;;;13.01
17716;BMP280;50159;49.426;11.182;2023-03-01T15:49:37;97884.00;;;13.57
17716;BMP280;50159;49.426;11.182;2023-03-01T15:52:32;97884.16;;;14.04
17716;BMP280;50159;49.426;11.182;2023-03-01T15:55:30;97873.16;;;14.10
17716;BMP280;50159;49.426;11.182;2023-03-01T15:58:05;97871.50;;;14.09
17716;BMP280;50159;49.426;11.182;2023-03-01T16:00:33;97869.75;;;13.70
17716;BMP280;50159;49.426;11.182;2023-03-01T16:03:00;97865.88;;;12.97